sensor_id;sensor_type;location;lat;lon;timestamp;P1;durP1;ratioP1;P2;durP2;ratioP2
51451;SDS011;37521;52.020;-1.740;2023-07-22T00:01:25;0.88;;;0.55;;
51451;SDS011;37521;52.020;-1.740;2023-07-22T00:03:54;1.50;;;0.95;;
51451;SDS011;37521;52.020;-1.740;2023-07-22T00:06:22;1.45;;;1.20;;
51451;SDS011;37521;52.020;-1.740;2023-07-22T00:08:51;1.92;;;1.08;;
51451;SDS011;37521;52.020;-1.740;2023-07-22T00:11:20;2.70;;;1.08;;
51451;SDS011;37521;52.020;-1.740;2023-07-22T00:13:49;1.98;;;0.93;;
51451;SDS011;37521;52.020;-1.740;2023-07-22T00:16:20;1.40;;;0.70;;
51451;SDS011;37521;52.020;-1.740;2023-07-22T00:18:49;2.30;;;1.23;;
51451;SDS011;37521;52.020;-1.740;2023-07-22T00:21:17;3.00;;;1.33;;
51451;SDS011;37521;52.020;-1.740;2023-07-22T00:23:46;0.85;;;0.80;;
51451;SDS011;37521;52.020;-1.740;2023-07-22T00:26:15;2.05;;;1.00;;
51451;SDS011;37521;52.020;-1.740;2023-07-22T00:28:43;1.35;;;1.00;;
51451;SDS011;37521;52.020;-1.740;2023-07-22T00:31:13;1.42;;;1.17;;
51451;SDS011;37521;52.020;-1.740;2023-07-22T00:33:43;3.38;;;1.48;;
51451;SDS011;37521;52.020;-1.740;2023-07-22T00:36:11;2.03;;;1.25;;
51451;SDS011;37521;52.020;-1.740;2023-07-22T00:38:39;1.77;;;0.98;;
51451;SDS011;37521;52.020;-1.740;2023-07-22T00:41:08;1.40;;;1.08;;
51451;SDS011;37521;52.020;-1.740;2023-07-22T00:43:38;2.08;;;1.08;;
51451;SDS011;37521;52.020;-1.740;2023-07-22T00:46:06;1.27;;;1.08;;
51451;SDS011;37521;52.020;-1.740;2023-07-22T00:48:35;1.02;;;0.95;;
51451;SDS011;37521;52.020;-1.740;2023-07-22T00:51:05;1.55;;;0.88;;
51451;SDS011;37521;52.020;-1.740;2023-07-22T00:53:34;2.03;;;1.13;;
51451;SDS011;37521;52.020;-1.740;2023-07-22T00:56:01;1.85;;;1.10;;
51451;SDS011;37521;52.020;-1.740;2023-07-22T00:58:31;1.48;;;1.30;;
51451;SDS011;37521;52.020;-1.740;2023-07-22T01:01:00;1.00;;;0.93;;
51451;SDS011;37521;52.020;-1.740;2023-07-22T01:03:29;1.88;;;1.10;;
51451;SDS011;37521;52.020;-1.740;2023-07-22T01:05:58;2.22;;;1.40;;
51451;SDS011;37521;52.020;-1.740;2023-07-22T01:08:30;1.17;;;1.02;;
51451;SDS011;37521;52.020;-1.740;2023-07-22T01:10:59;2.03;;;1.08;;
51451;SDS011;37521;52.020;-1.740;2023-07-22T01:13:27;1.70;;;1.08;;
51451;SDS011;37521;52.020;-1.740;2023-07-22T01:15:56;1.63;;;0.88;;
51451;SDS011;37521;52.020;-1.740;2023-07-22T01:18:25;1.92;;;1.10;;
51451;SDS011;37521;52.020;-1.740;2023-07-22T01:20:54;1.95;;;1.05;;
51451;SDS011;37521;52.020;-1.740;2023-07-22T01:23:26;1.92;;;1.10;;
51451;SDS011;37521;52.020;-1.740;2023-07-22T01:25:55;0.70;;;0.70;;
51451;SDS011;37521;52.020;-1.740;2023-07-22T01:28:25;1.63;;;1.02;;
51451;SDS011;37521;52.020;-1.740;2023-07-22T01:30:54;1.95;;;0.95;;
51451;SDS011;37521;52.020;-1.740;2023-07-22T01:33:23;1.75;;;1.02;;
51451;SDS011;37521;52.020;-1.740;2023-07-22T01:35:55;0.80;;;0.80;;
51451;SDS011;37521;52.020;-1.740;2023-07-22T01:38:25;0.82;;;0.80;;
51451;SDS011;37521;52.020;-1.740;2023-07-22T01:40:54;1.45;;;1.23;;
51451;SDS011;37521;52.020;-1.740;2023-07-22T01:43:22;1.83;;;0.82;;
51451;SDS011;37521;52.020;-1.740;2023-07-22T01:45:51;2.72;;;1.10;;
51451;SDS011;37521;52.020;-1.740;2023-07-22T01:48:19;1.10;;;0.80;;
51451;SDS011;37521;52.020;-1.740;2023-07-22T01:50:49;2.25;;;1.05;;
51451;SDS011;37521;52.020;-1.740;2023-07-22T01:53:17;1.33;;;1.20;;
51451;SDS011;37521;52.020;-1.740;2023-07-22T01:55:47;1.63;;;0.80;;
51451;SDS011;37521;52.020;-1.740;2023-07-22T01:58:16;2.33;;;1.02;;
51451;SDS011;37521;52.020;-1.740;2023-07-22T02:00:48;1.25;;;0.88;;
51451;SDS011;37521;52.020;-1.740;2023-07-22T02:03:18;1.92;;;1.00;;
51451;SDS011;37521;52.020;-1.740;2023-07-22T02:05:47;0.85;;;0.85;;
51451;SDS011;37521;52.020;-1.740;2023-07-22T02:08:16;0.73;;;0.65;;
51451;SDS011;37521;52.020;-1.740;2023-07-22T02:10:44;1.45;;;0.90;;
51451;SDS011;37521;52.020;-1.740;2023-07-22T02:13:14;1.50;;;1.20;;
51451;SDS011;37521;52.020;-1.740;2023-07-22T02:15:43;0.85;;;0.85;;
51451;SDS011;37521;52.020;-1.740;2023-07-22T02:18:12;1.92;;;0.90;;
51451;SDS011;37521;52.020;-1.740;2023-07-22T02:20:42;1.48;;;0.60;;
51451;SDS011;37521;52.020;-1.740;2023-07-22T02:23:10;0.70;;;0.70;;
51451;SDS011;37521;52.020;-1.740;2023-07-22T02:25:39;1.25;;;0.85;;
51451;SDS011;37521;52.020;-1.740;2023-07-22T02:28:08;2.00;;;0.98;;
51451;SDS011;37521;52.020;-1.740;2023-07-22T02:30:37;2.20;;;0.98;;
51451;SDS011;37521;52.020;-1.740;2023-07-22T02:33:06;0.95;;;0.82;;
51451;SDS011;37521;52.020;-1.740;2023-07-22T02:35:36;2.95;;;1.10;;
51451;SDS011;37521;52.020;-1.740;2023-07-22T02:38:04;1.92;;;1.15;;
51451;SDS011;37521;52.020;-1.740;2023-07-22T02:40:34;3.50;;;1.33;;
51451;SDS011;37521;52.020;-1.740;2023-07-22T02:43:03;1.23;;;0.75;;
51451;SDS011;37521;52.020;-1.740;2023-07-22T02:45:33;1.40;;;1.20;;
51451;SDS011;37521;52.020;-1.740;2023-07-22T02:48:04;2.08;;;1.58;;
51451;SDS011;37521;52.020;-1.740;2023-07-22T02:50:33;1.05;;;0.95;;
51451;SDS011;37521;52.020;-1.740;2023-07-22T02:53:03;2.13;;;1.33;;
51451;SDS011;37521;52.020;-1.740;2023-07-22T02:55:32;1.48;;;0.98;;
51451;SDS011;37521;52.020;-1.740;2023-07-22T02:58:00;1.92;;;1.30;;
51451;SDS011;37521;52.020;-1.740;2023-07-22T03:00:29;2.65;;;1.38;;
51451;SDS011;37521;52.020;-1.740;2023-07-22T03:02:58;0.80;;;0.80;;
51451;SDS011;37521;52.020;-1.740;2023-07-22T03:05:30;0.77;;;0.75;;
51451;SDS011;37521;52.020;-1.740;2023-07-22T03:07:59;1.85;;;1.02;;
51451;SDS011;37521;52.020;-1.740;2023-07-22T03:10:29;2.88;;;1.23;;
51451;SDS011;37521;52.020;-1.740;2023-07-22T03:12:58;2.92;;;1.45;;
51451;SDS011;37521;52.020;-1.740;2023-07-22T03:15:26;1.85;;;1.40;;
51451;SDS011;37521;52.020;-1.740;2023-07-22T03:17:55;1.45;;;0.95;;
51451;SDS011;37521;52.020;-1.740;2023-07-22T03:20:26;1.17;;;1.05;;
51451;SDS011;37521;52.020;-1.740;2023-07-22T03:22:56;2.42;;;1.40;;
51451;SDS011;37521;52.020;-1.740;2023-07-22T03:25:24;1.17;;;1.08;;
51451;SDS011;37521;52.020;-1.740;2023-07-22T03:27:53;2.90;;;1.35;;
51451;SDS011;37521;52.020;-1.740;2023-07-22T03:30:22;1.35;;;1.25;;
51451;SDS011;37521;52.020;-1.740;2023-07-22T03:32:50;2.20;;;1.33;;
51451;SDS011;37521;52.020;-1.740;2023-07-22T03:35:19;2.75;;;1.48;;
51451;SDS011;37521;52.020;-1.740;2023-07-22T03:37:47;1.77;;;1.52;;
51451;SDS011;37521;52.020;-1.740;2023-07-22T03:40:17;1.98;;;1.58;;
51451;SDS011;37521;52.020;-1.740;2023-07-22T03:42:47;2.25;;;1.60;;
51451;SDS011;37521;52.020;-1.740;2023-07-22T03:45:17;2.42;;;1.00;;
51451;SDS011;37521;52.020;-1.740;2023-07-22T03:47:46;1.50;;;1.40;;
51451;SDS011;37521;52.020;-1.740;2023-07-22T03:50:15;3.05;;;1.75;;
51451;SDS011;37521;52.020;-1.740;2023-07-22T03:52:45;1.52;;;1.42;;
51451;SDS011;37521;52.020;-1.740;2023-07-22T03:55:13;1.85;;;1.13;;
51451;SDS011;37521;52.020;-1.740;2023-07-22T03:57:43;2.40;;;1.80;;
51451;SDS011;37521;52.020;-1.740;2023-07-22T04:00:12;2.72;;;1.83;;
51451;SDS011;37521;52.020;-1.740;2023-07-22T04:02:41;2.40;;;1.40;;
51451;SDS011;37521;52.020;-1.740;2023-07-22T04:05:10;2.05;;;1.30;;
51451;SDS011;37521;52.020;-1.740;2023-07-22T04:07:38;5.30;;;1.98;;
51451;SDS011;37521;52.020;-1.740;2023-07-22T04:10:07;1.65;;;1.20;;
51451;SDS011;37521;52.020;-1.740;2023-07-22T04:12:36;1.73;;;1.40;;
51451;SDS011;37521;52.020;-1.740;2023-07-22T04:15:10;1.40;;;1.00;;
51451;SDS011;37521;52.020;-1.740;2023-07-22T04:17:39;1.77;;;1.60;;
51451;SDS011;37521;52.020;-1.740;2023-07-22T04:20:08;2.47;;;1.27;;
51451;SDS011;37521;52.020;-1.740;2023-07-22T04:22:37;3.47;;;1.50;;
51451;SDS011;37521;52.020;-1.740;2023-07-22T04:25:06;2.58;;;1.20;;
51451;SDS011;37521;52.020;-1.740;2023-07-22T04:27:36;1.23;;;1.13;;
51451;SDS011;37521;52.020;-1.740;2023-07-22T04:30:04;2.53;;;1.30;;
51451;SDS011;37521;52.020;-1.740;2023-07-22T04:32:35;3.58;;;1.30;;
51451;SDS011;37521;52.020;-1.740;2023-07-22T04:35:06;3.65;;;1.88;;
51451;SDS011;37521;52.020;-1.740;2023-07-22T04:37:36;3.10;;;1.00;;
51451;SDS011;37521;52.020;-1.740;2023-07-22T04:40:05;3.83;;;1.48;;
51451;SDS011;37521;52.020;-1.740;2023-07-22T04:42:40;2.58;;;1.52;;
51451;SDS011;37521;52.020;-1.740;2023-07-22T04:45:09;1.42;;;1.30;;
51451;SDS011;37521;52.020;-1.740;2023-07-22T04:47:39;2.35;;;1.45;;
51451;SDS011;37521;52.020;-1.740;2023-07-22T04:50:11;1.67;;;1.20;;
51451;SDS011;37521;52.020;-1.740;2023-07-22T04:52:41;4.50;;;1.35;;
51451;SDS011;37521;52.020;-1.740;2023-07-22T04:55:10;3.10;;;1.40;;
51451;SDS011;37521;52.020;-1.740;2023-07-22T04:57:39;2.13;;;1.48;;
51451;SDS011;37521;52.020;-1.740;2023-07-22T05:00:09;2.58;;;1.55;;
51451;SDS011;37521;52.020;-1.740;2023-07-22T05:02:42;1.70;;;1.10;;
51451;SDS011;37521;52.020;-1.740;2023-07-22T05:05:12;2.03;;;1.35;;
51451;SDS011;37521;52.020;-1.740;2023-07-22T05:07:40;1.98;;;1.45;;
51451;SDS011;37521;52.020;-1.740;2023-07-22T05:10:09;2.67;;;1.23;;
51451;SDS011;37521;52.020;-1.740;2023-07-22T05:12:39;2.22;;;1.50;;
51451;SDS011;37521;52.020;-1.740;2023-07-22T05:15:09;1.83;;;1.15;;
51451;SDS011;37521;52.020;-1.740;2023-07-22T05:17:38;2.20;;;1.33;;
51451;SDS011;37521;52.020;-1.740;2023-07-22T05:20:09;0.77;;;0.63;;
51451;SDS011;37521;52.020;-1.740;2023-07-22T05:22:40;1.50;;;1.00;;
51451;SDS011;37521;52.020;-1.740;2023-07-22T05:25:08;1.45;;;1.00;;
51451;SDS011;37521;52.020;-1.740;2023-07-22T05:27:37;1.80;;;1.00;;
51451;SDS011;37521;52.020;-1.740;2023-07-22T05:30:07;0.85;;;0.80;;
51451;SDS011;37521;52.020;-1.740;2023-07-22T05:32:54;0.88;;;0.88;;
51451;SDS011;37521;52.020;-1.740;2023-07-22T05:35:24;2.25;;;1.30;;
51451;SDS011;37521;52.020;-1.740;2023-07-22T05:37:53;1.20;;;0.73;;
51451;SDS011;37521;52.020;-1.740;2023-07-22T05:40:21;1.80;;;0.95;;
51451;SDS011;37521;52.020;-1.740;2023-07-22T05:42:50;1.73;;;1.13;;
51451;SDS011;37521;52.020;-1.740;2023-07-22T05:45:18;1.58;;;1.05;;
51451;SDS011;37521;52.020;-1.740;2023-07-22T05:47:46;2.15;;;1.05;;
51451;SDS011;37521;52.020;-1.740;2023-07-22T05:50:15;1.67;;;1.27;;
51451;SDS011;37521;52.020;-1.740;2023-07-22T05:52:45;2.15;;;1.30;;
51451;SDS011;37521;52.020;-1.740;2023-07-22T05:55:14;1.33;;;1.08;;
51451;SDS011;37521;52.020;-1.740;2023-07-22T05:57:43;0.68;;;0.68;;
51451;SDS011;37521;52.020;-1.740;2023-07-22T06:00:12;2.95;;;1.10;;
51451;SDS011;37521;52.020;-1.740;2023-07-22T06:02:41;2.00;;;1.30;;
51451;SDS011;37521;52.020;-1.740;2023-07-22T06:05:09;2.60;;;1.42;;
51451;SDS011;37521;52.020;-1.740;2023-07-22T06:07:38;2.40;;;1.25;;
51451;SDS011;37521;52.020;-1.740;2023-07-22T06:10:08;2.05;;;1.10;;
51451;SDS011;37521;52.020;-1.740;2023-07-22T06:12:37;1.63;;;1.25;;
51451;SDS011;37521;52.020;-1.740;2023-07-22T06:15:06;3.20;;;1.60;;
51451;SDS011;37521;52.020;-1.740;2023-07-22T06:17:35;2.97;;;1.08;;
51451;SDS011;37521;52.020;-1.740;2023-07-22T06:20:04;3.75;;;1.75;;
51451;SDS011;37521;52.020;-1.740;2023-07-22T06:22:34;3.53;;;1.48;;
51451;SDS011;37521;52.020;-1.740;2023-07-22T06:25:02;3.10;;;1.92;;
51451;SDS011;37521;52.020;-1.740;2023-07-22T06:27:33;1.58;;;1.48;;
51451;SDS011;37521;52.020;-1.740;2023-07-22T06:30:01;3.13;;;1.40;;
51451;SDS011;37521;52.020;-1.740;2023-07-22T06:32:30;4.07;;;1.30;;
51451;SDS011;37521;52.020;-1.740;2023-07-22T06:34:58;2.22;;;1.50;;
51451;SDS011;37521;52.020;-1.740;2023-07-22T06:37:27;2.05;;;1.88;;
51451;SDS011;37521;52.020;-1.740;2023-07-22T06:39:56;2.20;;;1.05;;
51451;SDS011;37521;52.020;-1.740;2023-07-22T06:42:24;3.30;;;1.90;;
51451;SDS011;37521;52.020;-1.740;2023-07-22T06:44:55;3.00;;;1.88;;
51451;SDS011;37521;52.020;-1.740;2023-07-22T06:47:23;3.58;;;1.90;;
51451;SDS011;37521;52.020;-1.740;2023-07-22T06:49:52;1.90;;;1.33;;
51451;SDS011;37521;52.020;-1.740;2023-07-22T06:52:21;3.78;;;1.33;;
51451;SDS011;37521;52.020;-1.740;2023-07-22T06:54:49;2.42;;;1.13;;
51451;SDS011;37521;52.020;-1.740;2023-07-22T06:57:18;5.30;;;2.15;;
51451;SDS011;37521;52.020;-1.740;2023-07-22T06:59:46;3.13;;;1.98;;
51451;SDS011;37521;52.020;-1.740;2023-07-22T07:02:18;1.83;;;1.40;;
51451;SDS011;37521;52.020;-1.740;2023-07-22T07:04:47;4.22;;;2.10;;
51451;SDS011;37521;52.020;-1.740;2023-07-22T07:07:16;3.55;;;2.08;;
51451;SDS011;37521;52.020;-1.740;2023-07-22T07:09:44;2.42;;;1.42;;
51451;SDS011;37521;52.020;-1.740;2023-07-22T07:12:13;2.15;;;1.80;;
51451;SDS011;37521;52.020;-1.740;2023-07-22T07:14:41;3.33;;;1.98;;
51451;SDS011;37521;52.020;-1.740;2023-07-22T07:17:10;5.10;;;2.20;;
51451;SDS011;37521;52.020;-1.740;2023-07-22T07:19:40;1.88;;;1.67;;
51451;SDS011;37521;52.020;-1.740;2023-07-22T07:22:09;1.70;;;1.50;;
51451;SDS011;37521;52.020;-1.740;2023-07-22T07:24:37;3.75;;;1.90;;
51451;SDS011;37521;52.020;-1.740;2023-07-22T07:27:06;5.10;;;1.50;;
51451;SDS011;37521;52.020;-1.740;2023-07-22T07:29:34;3.47;;;1.83;;
51451;SDS011;37521;52.020;-1.740;2023-07-22T07:32:20;2.63;;;1.98;;
51451;SDS011;37521;52.020;-1.740;2023-07-22T07:34:51;4.57;;;2.15;;
51451;SDS011;37521;52.020;-1.740;2023-07-22T07:37:20;3.33;;;1.48;;
51451;SDS011;37521;52.020;-1.740;2023-07-22T07:39:50;2.88;;;2.38;;
51451;SDS011;37521;52.020;-1.740;2023-07-22T07:42:19;2.72;;;1.40;;
51451;SDS011;37521;52.020;-1.740;2023-07-22T07:44:47;3.30;;;1.77;;
51451;SDS011;37521;52.020;-1.740;2023-07-22T07:47:16;3.97;;;2.15;;
51451;SDS011;37521;52.020;-1.740;2023-07-22T07:49:45;6.00;;;2.00;;
51451;SDS011;37521;52.020;-1.740;2023-07-22T07:52:15;2.92;;;1.55;;
51451;SDS011;37521;52.020;-1.740;2023-07-22T07:54:43;4.25;;;1.90;;
51451;SDS011;37521;52.020;-1.740;2023-07-22T07:57:12;4.28;;;2.58;;
51451;SDS011;37521;52.020;-1.740;2023-07-22T07:59:40;3.60;;;1.83;;
51451;SDS011;37521;52.020;-1.740;2023-07-22T08:02:09;5.13;;;1.98;;
51451;SDS011;37521;52.020;-1.740;2023-07-22T08:04:37;4.50;;;2.20;;
51451;SDS011;37521;52.020;-1.740;2023-07-22T08:07:06;3.83;;;1.90;;
51451;SDS011;37521;52.020;-1.740;2023-07-22T08:09:37;3.78;;;2.00;;
51451;SDS011;37521;52.020;-1.740;2023-07-22T08:12:05;3.85;;;2.08;;
51451;SDS011;37521;52.020;-1.740;2023-07-22T08:14:35;2.45;;;2.15;;
51451;SDS011;37521;52.020;-1.740;2023-07-22T08:17:03;4.00;;;1.88;;
51451;SDS011;37521;52.020;-1.740;2023-07-22T08:19:33;2.92;;;2.13;;
51451;SDS011;37521;52.020;-1.740;2023-07-22T08:22:02;3.00;;;1.85;;
51451;SDS011;37521;52.020;-1.740;2023-07-22T08:24:30;3.80;;;2.25;;
51451;SDS011;37521;52.020;-1.740;2023-07-22T08:27:00;3.13;;;1.98;;
51451;SDS011;37521;52.020;-1.740;2023-07-22T08:29:29;6.13;;;2.58;;
51451;SDS011;37521;52.020;-1.740;2023-07-22T08:31:58;5.50;;;2.22;;
51451;SDS011;37521;52.020;-1.740;2023-07-22T08:34:26;7.78;;;2.42;;
51451;SDS011;37521;52.020;-1.740;2023-07-22T08:36:55;3.88;;;1.92;;
51451;SDS011;37521;52.020;-1.740;2023-07-22T08:39:23;3.42;;;1.75;;
51451;SDS011;37521;52.020;-1.740;2023-07-22T08:41:52;4.53;;;2.53;;
51451;SDS011;37521;52.020;-1.740;2023-07-22T08:44:24;2.90;;;2.20;;
51451;SDS011;37521;52.020;-1.740;2023-07-22T08:46:58;8.73;;;2.60;;
51451;SDS011;37521;52.020;-1.740;2023-07-22T08:49:27;5.32;;;2.45;;
51451;SDS011;37521;52.020;-1.740;2023-07-22T08:51:56;6.80;;;2.83;;
51451;SDS011;37521;52.020;-1.740;2023-07-22T08:54:27;5.10;;;2.30;;
51451;SDS011;37521;52.020;-1.740;2023-07-22T08:56:56;4.55;;;2.08;;
51451;SDS011;37521;52.020;-1.740;2023-07-22T08:59:26;4.35;;;2.53;;
51451;SDS011;37521;52.020;-1.740;2023-07-22T09:01:55;5.70;;;2.03;;
51451;SDS011;37521;52.020;-1.740;2023-07-22T09:04:26;5.00;;;2.58;;
51451;SDS011;37521;52.020;-1.740;2023-07-22T09:06:54;4.93;;;2.45;;
51451;SDS011;37521;52.020;-1.740;2023-07-22T09:09:24;4.53;;;2.40;;
51451;SDS011;37521;52.020;-1.740;2023-07-22T09:11:53;5.97;;;2.17;;
51451;SDS011;37521;52.020;-1.740;2023-07-22T09:14:22;6.10;;;1.77;;
51451;SDS011;37521;52.020;-1.740;2023-07-22T09:17:03;3.67;;;2.35;;
51451;SDS011;37521;52.020;-1.740;2023-07-22T09:19:32;4.15;;;2.40;;
51451;SDS011;37521;52.020;-1.740;2023-07-22T09:22:01;3.97;;;2.22;;
51451;SDS011;37521;52.020;-1.740;2023-07-22T09:24:29;4.45;;;2.47;;
51451;SDS011;37521;52.020;-1.740;2023-07-22T09:26:58;7.40;;;2.05;;
51451;SDS011;37521;52.020;-1.740;2023-07-22T09:29:33;5.90;;;2.47;;
51451;SDS011;37521;52.020;-1.740;2023-07-22T09:32:04;4.78;;;2.50;;
51451;SDS011;37521;52.020;-1.740;2023-07-22T09:34:33;5.35;;;2.33;;
51451;SDS011;37521;52.020;-1.740;2023-07-22T09:37:02;3.75;;;1.90;;
51451;SDS011;37521;52.020;-1.740;2023-07-22T09:39:32;4.03;;;2.83;;
51451;SDS011;37521;52.020;-1.740;2023-07-22T09:42:03;4.15;;;1.88;;
51451;SDS011;37521;52.020;-1.740;2023-07-22T09:44:32;6.50;;;2.10;;
51451;SDS011;37521;52.020;-1.740;2023-07-22T09:47:09;6.28;;;2.67;;
51451;SDS011;37521;52.020;-1.740;2023-07-22T09:49:39;3.28;;;2.30;;
51451;SDS011;37521;52.020;-1.740;2023-07-22T09:52:10;3.40;;;2.00;;
51451;SDS011;37521;52.020;-1.740;2023-07-22T09:54:48;2.78;;;2.17;;
51451;SDS011;37521;52.020;-1.740;2023-07-22T09:57:17;7.32;;;2.10;;
51451;SDS011;37521;52.020;-1.740;2023-07-22T09:59:46;5.13;;;1.95;;
51451;SDS011;37521;52.020;-1.740;2023-07-22T10:02:19;4.40;;;2.53;;
51451;SDS011;37521;52.020;-1.740;2023-07-22T10:04:50;5.07;;;2.37;;
51451;SDS011;37521;52.020;-1.740;2023-07-22T10:07:20;4.78;;;2.35;;
51451;SDS011;37521;52.020;-1.740;2023-07-22T10:09:49;6.55;;;2.47;;
51451;SDS011;37521;52.020;-1.740;2023-07-22T10:12:22;3.30;;;2.23;;
51451;SDS011;37521;52.020;-1.740;2023-07-22T10:14:52;4.65;;;2.17;;
51451;SDS011;37521;52.020;-1.740;2023-07-22T10:17:22;3.50;;;1.80;;
51451;SDS011;37521;52.020;-1.740;2023-07-22T10:19:52;3.63;;;1.73;;
51451;SDS011;37521;52.020;-1.740;2023-07-22T10:22:22;4.75;;;2.20;;
51451;SDS011;37521;52.020;-1.740;2023-07-22T10:24:50;5.10;;;1.98;;
51451;SDS011;37521;52.020;-1.740;2023-07-22T10:27:22;3.92;;;2.10;;
51451;SDS011;37521;52.020;-1.740;2023-07-22T10:29:51;3.92;;;1.98;;
51451;SDS011;37521;52.020;-1.740;2023-07-22T10:32:24;3.72;;;2.05;;
51451;SDS011;37521;52.020;-1.740;2023-07-22T10:34:53;3.83;;;2.15;;
51451;SDS011;37521;52.020;-1.740;2023-07-22T10:37:21;5.57;;;2.53;;
51451;SDS011;37521;52.020;-1.740;2023-07-22T10:39:59;3.70;;;2.00;;
51451;SDS011;37521;52.020;-1.740;2023-07-22T10:42:28;3.83;;;2.30;;
51451;SDS011;37521;52.020;-1.740;2023-07-22T10:45:00;3.17;;;2.38;;
51451;SDS011;37521;52.020;-1.740;2023-07-22T10:47:34;2.95;;;1.77;;
51451;SDS011;37521;52.020;-1.740;2023-07-22T10:50:07;3.03;;;2.13;;
51451;SDS011;37521;52.020;-1.740;2023-07-22T10:52:40;1.83;;;1.55;;
51451;SDS011;37521;52.020;-1.740;2023-07-22T10:55:16;3.60;;;1.77;;
51451;SDS011;37521;52.020;-1.740;2023-07-22T10:57:49;3.30;;;1.83;;
51451;SDS011;37521;52.020;-1.740;2023-07-22T11:00:20;4.18;;;2.05;;
51451;SDS011;37521;52.020;-1.740;2023-07-22T11:05:46;3.08;;;2.10;;
51451;SDS011;37521;52.020;-1.740;2023-07-22T11:08:16;2.05;;;1.45;;
51451;SDS011;37521;52.020;-1.740;2023-07-22T11:10:54;3.42;;;1.83;;
51451;SDS011;37521;52.020;-1.740;2023-07-22T11:13:26;2.53;;;1.35;;
51451;SDS011;37521;52.020;-1.740;2023-07-22T11:15:59;3.10;;;1.83;;
51451;SDS011;37521;52.020;-1.740;2023-07-22T11:18:38;3.80;;;1.40;;
51451;SDS011;37521;52.020;-1.740;2023-07-22T11:21:09;2.58;;;1.65;;
51451;SDS011;37521;52.020;-1.740;2023-07-22T11:23:38;2.33;;;1.27;;
51451;SDS011;37521;52.020;-1.740;2023-07-22T11:26:07;3.58;;;1.45;;
51451;SDS011;37521;52.020;-1.740;2023-07-22T11:28:35;5.05;;;1.63;;
51451;SDS011;37521;52.020;-1.740;2023-07-22T11:31:04;2.85;;;1.83;;
51451;SDS011;37521;52.020;-1.740;2023-07-22T11:33:41;2.22;;;1.77;;
51451;SDS011;37521;52.020;-1.740;2023-07-22T11:36:13;2.20;;;1.55;;
51451;SDS011;37521;52.020;-1.740;2023-07-22T11:38:41;3.33;;;1.80;;
51451;SDS011;37521;52.020;-1.740;2023-07-22T11:41:10;2.85;;;1.50;;
51451;SDS011;37521;52.020;-1.740;2023-07-22T11:43:38;2.75;;;1.50;;
51451;SDS011;37521;52.020;-1.740;2023-07-22T11:46:07;2.53;;;1.63;;
51451;SDS011;37521;52.020;-1.740;2023-07-22T11:48:36;2.33;;;1.35;;
51451;SDS011;37521;52.020;-1.740;2023-07-22T11:51:09;1.35;;;1.13;;
51451;SDS011;37521;52.020;-1.740;2023-07-22T11:53:37;3.00;;;1.70;;
51451;SDS011;37521;52.020;-1.740;2023-07-22T11:56:06;2.55;;;1.45;;
51451;SDS011;37521;52.020;-1.740;2023-07-22T11:58:35;3.08;;;1.33;;
51451;SDS011;37521;52.020;-1.740;2023-07-22T12:01:05;2.13;;;1.25;;
51451;SDS011;37521;52.020;-1.740;2023-07-22T12:03:34;3.75;;;1.70;;
51451;SDS011;37521;52.020;-1.740;2023-07-22T12:06:03;2.00;;;0.98;;
51451;SDS011;37521;52.020;-1.740;2023-07-22T12:08:35;2.58;;;1.02;;
51451;SDS011;37521;52.020;-1.740;2023-07-22T12:11:03;2.63;;;1.50;;
51451;SDS011;37521;52.020;-1.740;2023-07-22T12:13:38;3.60;;;1.13;;
51451;SDS011;37521;52.020;-1.740;2023-07-22T12:16:06;2.97;;;1.40;;
51451;SDS011;37521;52.020;-1.740;2023-07-22T12:18:42;1.67;;;1.17;;
51451;SDS011;37521;52.020;-1.740;2023-07-22T12:21:11;3.83;;;1.48;;
51451;SDS011;37521;52.020;-1.740;2023-07-22T12:23:41;2.00;;;1.27;;
51451;SDS011;37521;52.020;-1.740;2023-07-22T12:26:10;1.88;;;1.02;;
51451;SDS011;37521;52.020;-1.740;2023-07-22T12:28:39;2.35;;;1.30;;
51451;SDS011;37521;52.020;-1.740;2023-07-22T12:31:07;2.83;;;1.70;;
51451;SDS011;37521;52.020;-1.740;2023-07-22T12:33:36;2.33;;;1.23;;
51451;SDS011;37521;52.020;-1.740;2023-07-22T12:36:05;3.17;;;1.23;;
51451;SDS011;37521;52.020;-1.740;2023-07-22T12:38:34;2.28;;;1.13;;
51451;SDS011;37521;52.020;-1.740;2023-07-22T12:41:04;1.88;;;1.27;;
51451;SDS011;37521;52.020;-1.740;2023-07-22T12:43:32;1.85;;;1.05;;
51451;SDS011;37521;52.020;-1.740;2023-07-22T12:46:01;4.03;;;1.60;;
51451;SDS011;37521;52.020;-1.740;2023-07-22T12:48:29;2.42;;;1.65;;
51451;SDS011;37521;52.020;-1.740;2023-07-22T12:50:58;3.75;;;1.27;;
51451;SDS011;37521;52.020;-1.740;2023-07-22T12:53:27;1.83;;;1.08;;
51451;SDS011;37521;52.020;-1.740;2023-07-22T12:55:58;1.45;;;0.90;;
51451;SDS011;37521;52.020;-1.740;2023-07-22T12:58:30;3.00;;;1.38;;
51451;SDS011;37521;52.020;-1.740;2023-07-22T13:00:58;1.75;;;1.00;;
51451;SDS011;37521;52.020;-1.740;2023-07-22T13:03:27;1.65;;;1.08;;
51451;SDS011;37521;52.020;-1.740;2023-07-22T13:05:55;3.78;;;1.10;;
51451;SDS011;37521;52.020;-1.740;2023-07-22T13:08:24;2.55;;;1.15;;
51451;SDS011;37521;52.020;-1.740;2023-07-22T13:10:52;1.73;;;0.93;;
51451;SDS011;37521;52.020;-1.740;2023-07-22T13:13:21;2.30;;;1.17;;
51451;SDS011;37521;52.020;-1.740;2023-07-22T13:15:50;1.92;;;0.77;;
51451;SDS011;37521;52.020;-1.740;2023-07-22T13:18:20;2.55;;;1.17;;
51451;SDS011;37521;52.020;-1.740;2023-07-22T13:20:48;3.38;;;1.23;;
51451;SDS011;37521;52.020;-1.740;2023-07-22T13:23:17;3.38;;;1.33;;
51451;SDS011;37521;52.020;-1.740;2023-07-22T13:25:45;3.30;;;1.10;;
51451;SDS011;37521;52.020;-1.740;2023-07-22T13:28:14;1.85;;;1.00;;
51451;SDS011;37521;52.020;-1.740;2023-07-22T13:30:42;1.77;;;1.08;;
51451;SDS011;37521;52.020;-1.740;2023-07-22T13:33:12;3.38;;;1.08;;
51451;SDS011;37521;52.020;-1.740;2023-07-22T13:35:41;2.13;;;1.27;;
51451;SDS011;37521;52.020;-1.740;2023-07-22T13:38:09;1.17;;;0.88;;
51451;SDS011;37521;52.020;-1.740;2023-07-22T13:40:38;1.45;;;1.13;;
51451;SDS011;37521;52.020;-1.740;2023-07-22T13:43:06;3.08;;;1.10;;
51451;SDS011;37521;52.020;-1.740;2023-07-22T13:45:36;0.90;;;0.73;;
51451;SDS011;37521;52.020;-1.740;2023-07-22T13:48:04;2.00;;;1.23;;
51451;SDS011;37521;52.020;-1.740;2023-07-22T13:50:34;2.03;;;0.90;;
51451;SDS011;37521;52.020;-1.740;2023-07-22T13:53:05;1.85;;;1.30;;
51451;SDS011;37521;52.020;-1.740;2023-07-22T13:55:33;1.98;;;1.05;;
51451;SDS011;37521;52.020;-1.740;2023-07-22T13:58:02;3.22;;;1.00;;
51451;SDS011;37521;52.020;-1.740;2023-07-22T14:00:30;1.25;;;1.10;;
51451;SDS011;37521;52.020;-1.740;2023-07-22T14:02:59;1.38;;;1.27;;
51451;SDS011;37521;52.020;-1.740;2023-07-22T14:05:28;1.35;;;0.52;;
51451;SDS011;37521;52.020;-1.740;2023-07-22T14:07:59;1.77;;;0.70;;
51451;SDS011;37521;52.020;-1.740;2023-07-22T14:10:27;0.57;;;0.45;;
51451;SDS011;37521;52.020;-1.740;2023-07-22T14:12:56;0.80;;;0.60;;
51451;SDS011;37521;52.020;-1.740;2023-07-22T14:15:24;1.23;;;0.35;;
51451;SDS011;37521;52.020;-1.740;2023-07-22T14:17:53;0.77;;;0.60;;
51451;SDS011;37521;52.020;-1.740;2023-07-22T14:20:21;1.30;;;0.50;;
51451;SDS011;37521;52.020;-1.740;2023-07-22T14:22:50;1.38;;;0.75;;
51451;SDS011;37521;52.020;-1.740;2023-07-22T14:25:21;1.05;;;0.70;;
51451;SDS011;37521;52.020;-1.740;2023-07-22T14:27:49;1.10;;;0.80;;
51451;SDS011;37521;52.020;-1.740;2023-07-22T14:30:18;0.75;;;0.52;;
51451;SDS011;37521;52.020;-1.740;2023-07-22T14:32:47;1.00;;;0.80;;
51451;SDS011;37521;52.020;-1.740;2023-07-22T14:35:15;0.95;;;0.73;;
51451;SDS011;37521;52.020;-1.740;2023-07-22T14:37:44;0.60;;;0.60;;
51451;SDS011;37521;52.020;-1.740;2023-07-22T14:40:13;1.38;;;1.20;;
51451;SDS011;37521;52.020;-1.740;2023-07-22T14:42:43;2.05;;;0.55;;
51451;SDS011;37521;52.020;-1.740;2023-07-22T14:45:12;1.05;;;0.65;;
51451;SDS011;37521;52.020;-1.740;2023-07-22T14:47:40;1.65;;;1.00;;
51451;SDS011;37521;52.020;-1.740;2023-07-22T14:50:09;5.57;;;0.93;;